Etusivu
METAR-TAF:

METAR-TAF

Lentoasemat :

Nouakchottin kansainvälinen lentoasema

Nouakchott, Mauritania

Leveyspiiri: 18-18-36N, Pituuspiiri: 015-58-11W, korkeus merenpinnasta: 3 m

Tämänhetkinen sää

Tämä raportti tehtiin 1 tunti ja 5 minuuttia sitten, kello 03.30 UTC
Tuuli 6 kn pohjoisesta
Lämpötila 18°C
Kosteus 83%
Ilmanpaine 1010 hPa
Näkyvyys: 8000 m

METAR: GQNO 130330Z 36006KT 8000 NSC 18/15 Q1010 NOSIG

Aika: 04:35 (04:35 UTC)

Sääennuste

Tämä raportti tehtiin 5 tuntia ja 35 minuuttia sitten, kello 23.00 UTC
Ennuste voimassa 13. päivästä klo 00 UTC - 14. päivään klo 06 UTC
Tuuli 12 kn pohjoisesta
Näkyvyys: 7000 m
Ajoittain
13. päivästä klo 10 UTC - 13. päivään klo 16 UTC
Tuuli 12 kn idästä
Todennäköisyys 30% :
Ajoittain
13. päivästä klo 11 UTC - 13. päivään klo 15 UTC
Näkyvyys: 3500 m
pölymyrsky

TAF: GQNO 122300Z 1300/1406 35012KT 7000 NSC TEMPO 1310/1316 08012KT PROB30 TEMPO 1311/1315 3500 BLDU

Säähavainnot ja -ennusteet yli 4000 lentoasemalta (METAR- ja TAF-raportit).

Käytössä olevat sääasemat on merkitty karttaan keltaisilla ja punaisilla pisteillä.

Aseta hiiri pisteen päälle nähdäksesi sääaseman nimen.

Klikkaa sitten nähdäksesi säähavainnot ja -ennusteet.

Kartan vaihtaminen: klikkaa mustalla rastilla varustettuja vihreitä pisteitä, niin voit zoomata sisään; viivalla varustettua vihreää pistettä, niin voit zoomata ulos tai vihreitä nuolia, niin pääset viereisille kartoille.


METAR-TAF: